Fort Lauderdale Hollywood International Airport
KFLL : now visible

Airfield :











YOU CAN JOIN US ON...

 
LOGIN :

Register | Disclaimer

   EN    FR    IT 

 









Legend :    VFR   Marginal VFR   IFR   Intensive IFR   Very Intensive IFR
Visi :
Ceiling :
>= 8 km
>= 3000ft
5 to 8 km
1000 to 3000 ft
1500m to 5 km
500 to 1000 ft
800 to 1500m
200 to 500 ft
< 800m
< 200 ft
Symbols :   Thunderstorms  Fog  Heavy snow  Heavy precipitations  Wind > 20 kt







- Airport Elevation : 9 ft
- IATA code : FLL


KFLL - Fort Lauderdale Hollywood International

CURRENT METAR :
  • 160553Z 27006KT 10SM FEW035 SCT110 27/24 A2992 RMK AO2 SLP132 T02670239 10294 20261 58000 $

EXPIRED METARs :
  • 160453Z 27007KT 10SM FEW035 FEW075 SCT110 27/24 A2994 RMK AO2 SLP136 T02670239 403440256 $
  • 160353Z 27006KT 10SM FEW031 SCT110 27/24 A2992 RMK AO2 SLP132 T02720239 $

TAF KFLL
Valid from the 16 at 06:00 until the 17 at 12:00 UTC


160521Z 1606/1712 28007KT P6SM FEW030 SCT250
FM161400 30010KT P6SM SCT030 SCT050 SCT250
PROB30 1618/1621 P6SM TSRA BKN035CB
FM162100 35010KT P6SM SCT030 BKN050
FM170300 32005KT P6SM FEW030 FEW250
No reported NOTAMs for that airfield.



MET'MAP, your aeronautical weather chart ! - Copyright ORBIFLY December 2007 - Disclaimer

ORBIFLY MET'MAP TEAM :

Programming & Development : Alexandra Zaïnal
Concept & Development : Baudouin d'Aumeries
Co-Development & Prog : Marc-Olivier Méhu
Technical & hardware support : Manuel Goepfert

Contact : metmap@orbifly.com




SOURCES & CREDITS :

   NOAA       Earth
Advisory